createdAt,value
2023-03-15T00:02:07.450Z,70.67
2023-03-15T00:04:37.095Z,71.50
2023-03-15T00:07:06.589Z,70.60
2023-03-15T00:09:34.409Z,70.37
2023-03-15T00:12:02.529Z,70.47
2023-03-15T00:14:31.568Z,69.83
2023-03-15T00:16:59.520Z,70.47
2023-03-15T00:19:27.401Z,69.92
2023-03-15T00:21:55.291Z,70.17
2023-03-15T00:24:25.245Z,69.67
2023-03-15T00:26:53.177Z,70.65
2023-03-15T00:29:21.132Z,71.10
2023-03-15T00:31:50.040Z,70.31
2023-03-15T00:34:18.950Z,70.50
2023-03-15T00:36:46.975Z,70.41
2023-03-15T00:39:15.284Z,70.51
2023-03-15T00:41:45.651Z,71.01
2023-03-15T00:44:13.967Z,70.54
2023-03-15T00:46:41.842Z,70.88
2023-03-15T00:49:09.888Z,71.41
2023-03-15T00:51:37.842Z,71.41
2023-03-15T00:54:05.848Z,73.39
2023-03-15T00:56:33.710Z,72.10
2023-03-15T00:59:03.696Z,71.12
2023-03-15T01:01:31.818Z,71.73
2023-03-15T01:03:59.778Z,70.74
2023-03-15T01:06:29.695Z,70.74
2023-03-15T01:08:59.981Z,70.23
2023-03-15T01:11:29.764Z,70.19
2023-03-15T01:13:59.318Z,69.71
2023-03-15T01:16:28.950Z,69.98
2023-03-15T01:18:57.460Z,69.64
2023-03-15T01:21:26.314Z,70.50
2023-03-15T01:23:54.871Z,69.83
2023-03-15T01:26:23.376Z,70.07
2023-03-15T01:28:51.897Z,70.73
2023-03-15T01:31:23.885Z,70.79
2023-03-15T01:33:53.388Z,69.90
2023-03-15T01:36:22.026Z,70.24
2023-03-15T01:38:50.791Z,69.33
2023-03-15T01:41:23.210Z,71.91
2023-03-15T01:43:52.169Z,72.08
2023-03-15T01:46:29.114Z,73.61
2023-03-15T01:49:25.705Z,72.62
2023-03-15T01:51:58.480Z,72.36
2023-03-15T01:54:35.087Z,72.73
2023-03-15T01:57:07.264Z,72.16
2023-03-15T01:59:39.685Z,72.37
2023-03-15T02:02:08.947Z,73.62
2023-03-15T02:04:46.543Z,75.74
2023-03-15T02:07:19.313Z,74.88
2023-03-15T02:09:55.383Z,77.45
2023-03-15T02:12:23.247Z,78.70
2023-03-15T02:14:54.083Z,79.19
2023-03-15T02:17:30.043Z,80.67
2023-03-15T02:20:07.114Z,81.20
2023-03-15T02:22:45.919Z,80.58
2023-03-15T02:25:22.847Z,81.50
2023-03-15T02:27:52.761Z,83.59
2023-03-15T02:30:21.064Z,83.77
2023-03-15T02:32:49.341Z,84.47
2023-03-15T02:35:25.226Z,85.92
2023-03-15T02:37:53.966Z,88.27
2023-03-15T02:40:23.825Z,90.92
2023-03-15T02:42:57.187Z,90.89
2023-03-15T02:45:27.491Z,91.57
2023-03-15T02:47:55.962Z,92.69
2023-03-15T02:50:24.146Z,92.54
2023-03-15T02:52:52.813Z,93.80
2023-03-15T02:55:21.757Z,93.90
2023-03-15T02:57:50.009Z,94.52
2023-03-15T03:00:19.885Z,95.30
2023-03-15T03:02:49.358Z,95.78
2023-03-15T03:05:17.849Z,95.65
2023-03-15T03:07:46.880Z,96.62
2023-03-15T03:10:17.169Z,95.68
2023-03-15T03:12:53.580Z,97.07
2023-03-15T03:15:28.566Z,97.35
2023-03-15T03:17:56.834Z,95.94
2023-03-15T03:20:25.395Z,95.92
2023-03-15T03:22:55.928Z,95.82
2023-03-15T03:25:27.017Z,95.68
2023-03-15T03:27:57.309Z,96.28
2023-03-15T03:30:28.565Z,96.01
2023-03-15T03:32:56.740Z,95.22
2023-03-15T03:35:24.650Z,95.21
2023-03-15T03:37:54.073Z,94.67
2023-03-15T03:40:31.837Z,95.10
2023-03-15T03:43:00.035Z,95.18
2023-03-15T03:45:29.290Z,95.43
2023-03-15T03:47:59.407Z,96.66
2023-03-15T03:50:27.654Z,96.47
2023-03-15T03:52:55.755Z,95.91
2023-03-15T03:55:27.924Z,95.72
2023-03-15T03:57:55.734Z,95.72
2023-03-15T04:00:40.299Z,96.48
2023-03-15T04:03:09.623Z,96.50
2023-03-15T04:05:39.788Z,97.05
2023-03-15T04:08:07.718Z,97.18
2023-03-15T04:10:39.733Z,98.61
2023-03-15T04:13:07.774Z,98.46
2023-03-15T04:15:35.903Z,98.33
2023-03-15T04:18:05.961Z,98.54
2023-03-15T04:20:39.761Z,97.70
2023-03-15T04:23:08.428Z,97.01
2023-03-15T04:25:55.716Z,98.29
2023-03-15T04:28:40.376Z,97.89
2023-03-15T04:31:27.119Z,98.46
2023-03-15T04:34:15.251Z,98.48
2023-03-15T04:37:01.643Z,97.74
2023-03-15T04:39:55.704Z,97.00
2023-03-15T04:42:35.523Z,96.62
2023-03-15T04:45:14.425Z,97.54
2023-03-15T04:48:02.205Z,96.70
2023-03-15T04:50:39.628Z,95.75
2023-03-15T04:53:39.066Z,94.76
2023-03-15T04:56:42.155Z,95.19
2023-03-15T04:59:22.910Z,94.75
2023-03-15T05:02:12.970Z,93.82
2023-03-15T05:04:59.309Z,95.23
2023-03-15T05:07:42.326Z,94.50
2023-03-15T05:10:33.410Z,93.80
2023-03-15T05:13:19.162Z,93.24
2023-03-15T05:16:07.641Z,93.55
2023-03-15T05:18:38.108Z,93.47
2023-03-15T05:21:28.999Z,93.31
2023-03-15T05:24:16.909Z,92.55
2023-03-15T05:27:14.280Z,92.31
2023-03-15T05:30:10.580Z,92.59
2023-03-15T05:33:05.427Z,92.75
2023-03-15T05:35:45.533Z,93.14
2023-03-15T05:38:39.667Z,92.63
2023-03-15T05:41:19.422Z,92.77
2023-03-15T05:44:01.717Z,92.51
2023-03-15T05:46:57.371Z,92.82
2023-03-15T05:49:38.466Z,93.05
2023-03-15T05:52:26.732Z,92.91
2023-03-15T05:55:10.476Z,92.77
2023-03-15T05:57:58.139Z,92.30
2023-03-15T06:00:44.317Z,91.88
2023-03-15T06:03:25.150Z,92.36
2023-03-15T06:05:59.246Z,91.42
2023-03-15T06:08:37.015Z,91.29
2023-03-15T06:11:05.214Z,92.09
2023-03-15T06:13:34.884Z,93.95
2023-03-15T06:16:08.342Z,92.68
2023-03-15T06:18:40.750Z,92.22
2023-03-15T06:21:09.915Z,91.88
2023-03-15T06:23:38.606Z,91.92
2023-03-15T06:26:06.761Z,92.51
2023-03-15T06:28:37.291Z,92.25
2023-03-15T06:31:08.787Z,91.85
2023-03-15T06:33:43.172Z,91.49
2023-03-15T06:36:12.750Z,92.25
2023-03-15T06:38:41.830Z,93.40
2023-03-15T06:41:09.858Z,92.62
2023-03-15T06:43:39.917Z,92.81
2023-03-15T06:46:07.978Z,92.46
2023-03-15T06:48:36.128Z,91.28
2023-03-15T06:51:05.921Z,91.45
2023-03-15T06:53:34.688Z,91.17
2023-03-15T06:56:02.711Z,90.32
2023-03-15T06:58:30.828Z,89.97
2023-03-15T07:01:00.019Z,90.95
2023-03-15T07:03:27.884Z,91.40
2023-03-15T07:05:55.856Z,91.66
2023-03-15T07:08:25.623Z,90.92
2023-03-15T07:10:53.785Z,90.24
2023-03-15T07:13:21.623Z,91.21
2023-03-15T07:15:53.243Z,90.70
2023-03-15T07:18:22.568Z,90.40
2023-03-15T07:20:57.052Z,90.57
2023-03-15T07:23:24.952Z,91.28
2023-03-15T07:25:55.467Z,90.88
2023-03-15T07:28:25.042Z,91.41
2023-03-15T07:30:57.753Z,91.39
2023-03-15T07:33:28.558Z,91.56
2023-03-15T07:35:57.204Z,90.40
2023-03-15T07:38:26.570Z,92.02
2023-03-15T07:40:54.523Z,91.09
2023-03-15T07:43:22.755Z,90.39
2023-03-15T07:45:58.053Z,90.48
2023-03-15T07:48:29.342Z,89.98
2023-03-15T07:50:57.908Z,90.57
2023-03-15T07:53:25.929Z,90.55
2023-03-15T07:55:54.146Z,90.06
2023-03-15T07:58:22.050Z,89.55
2023-03-15T08:00:49.888Z,88.86
2023-03-15T08:03:18.259Z,89.21
2023-03-15T08:05:47.530Z,88.30
2023-03-15T08:08:15.347Z,87.48
2023-03-15T08:10:44.674Z,86.37
2023-03-15T08:13:12.591Z,86.48
2023-03-15T08:15:40.813Z,85.27
2023-03-15T08:18:08.724Z,83.57
2023-03-15T08:20:36.562Z,84.57
2023-03-15T08:23:06.363Z,83.98
2023-03-15T08:25:34.174Z,84.98
2023-03-15T08:28:02.022Z,84.55
2023-03-15T08:30:29.955Z,84.58
2023-03-15T08:32:57.990Z,85.16
2023-03-15T08:35:25.979Z,85.74
2023-03-15T08:37:53.885Z,84.90
2023-03-15T08:40:25.785Z,84.36
2023-03-15T08:42:54.440Z,84.46
2023-03-15T08:45:23.944Z,84.27
2023-03-15T08:47:55.403Z,83.73
2023-03-15T08:50:23.358Z,80.49
2023-03-15T08:52:51.751Z,79.99
2023-03-15T08:55:19.761Z,78.87
2023-03-15T08:57:49.373Z,80.45
2023-03-15T09:00:20.748Z,79.35
2023-03-15T09:02:49.886Z,77.91
2023-03-15T09:05:18.402Z,80.13
2023-03-15T09:07:47.262Z,80.65
2023-03-15T09:10:17.295Z,79.72
2023-03-15T09:12:47.445Z,79.12
2023-03-15T09:15:17.063Z,77.69
2023-03-15T09:17:45.121Z,75.00
2023-03-15T09:20:18.741Z,75.04
2023-03-15T09:22:52.650Z,74.00
2023-03-15T09:25:21.458Z,70.84
2023-03-15T09:27:49.450Z,72.86
2023-03-15T09:30:19.232Z,72.55
2023-03-15T09:32:47.152Z,73.37
2023-03-15T09:35:17.533Z,76.00
2023-03-15T09:37:45.350Z,73.69
2023-03-15T09:40:18.967Z,74.08
2023-03-15T09:43:07.183Z,73.30
2023-03-15T09:46:02.092Z,71.93
2023-03-15T09:48:33.733Z,71.75
2023-03-15T09:51:07.755Z,69.41
2023-03-15T09:53:42.784Z,66.05
2023-03-15T09:56:23.905Z,63.16
2023-03-15T09:58:56.091Z,65.91
2023-03-15T10:01:30.228Z,64.23
2023-03-15T10:03:58.389Z,65.18
2023-03-15T10:06:36.461Z,59.41
2023-03-15T10:09:14.960Z,60.15
2023-03-15T10:11:51.040Z,60.66
2023-03-15T10:14:33.744Z,63.69
2023-03-15T10:17:08.374Z,59.10
2023-03-15T10:19:45.919Z,57.63
2023-03-15T10:22:22.219Z,60.00
2023-03-15T10:24:52.973Z,59.87
2023-03-15T10:27:23.502Z,58.37
2023-03-15T10:29:53.902Z,57.70
2023-03-15T10:32:28.415Z,59.89
2023-03-15T10:34:58.717Z,59.42
2023-03-15T10:37:26.843Z,58.37
2023-03-15T10:39:57.508Z,58.79
2023-03-15T10:42:27.816Z,60.84
2023-03-15T10:44:55.553Z,59.49
2023-03-15T10:47:26.588Z,60.97
2023-03-15T10:49:58.455Z,60.17
2023-03-15T10:52:29.565Z,60.94
2023-03-15T10:55:02.473Z,59.65
2023-03-15T10:57:36.709Z,60.32
2023-03-15T11:00:19.826Z,60.49
2023-03-15T11:02:53.078Z,58.75
2023-03-15T11:05:21.519Z,57.90
2023-03-15T11:07:56.964Z,57.64
2023-03-15T11:10:26.951Z,55.96
2023-03-15T11:13:13.575Z,59.72
2023-03-15T11:15:50.292Z,57.87
2023-03-15T11:18:21.573Z,62.95
2023-03-15T11:20:49.908Z,60.26
2023-03-15T11:23:21.882Z,62.14
2023-03-15T11:25:50.618Z,61.55
2023-03-15T11:28:21.916Z,62.08
2023-03-15T11:30:50.824Z,61.10
2023-03-15T11:33:38.915Z,55.62
2023-03-15T11:36:12.444Z,55.44
2023-03-15T11:38:44.177Z,55.40
2023-03-15T11:41:28.218Z,56.39
2023-03-15T11:44:03.705Z,56.26
2023-03-15T11:46:37.828Z,57.96
2023-03-15T11:49:15.328Z,53.81
2023-03-15T11:51:43.365Z,53.49
2023-03-15T11:54:15.584Z,50.17
2023-03-15T11:56:53.109Z,50.87
2023-03-15T11:59:26.581Z,47.85
2023-03-15T12:01:58.578Z,48.33
2023-03-15T12:04:52.600Z,50.07
2023-03-15T12:07:34.746Z,47.01
2023-03-15T12:10:30.565Z,47.85
2023-03-15T12:13:00.557Z,45.37
2023-03-15T12:15:49.089Z,44.89
2023-03-15T12:18:40.833Z,45.49
2023-03-15T12:21:13.903Z,46.19
2023-03-15T12:23:46.405Z,47.21
2023-03-15T12:26:26.604Z,43.39
2023-03-15T12:29:06.820Z,43.02
2023-03-15T12:31:53.560Z,46.64
2023-03-15T12:34:28.071Z,45.48
2023-03-15T12:37:04.082Z,44.95
2023-03-15T12:39:45.092Z,43.80
2023-03-15T12:42:15.855Z,43.17
2023-03-15T12:44:44.962Z,42.91
2023-03-15T12:47:13.551Z,45.04
2023-03-15T12:49:43.800Z,44.01
2023-03-15T12:52:28.424Z,43.75
2023-03-15T12:55:02.166Z,44.99
2023-03-15T12:57:32.249Z,44.26
2023-03-15T13:00:06.260Z,45.44
2023-03-15T13:02:43.206Z,43.33
2023-03-15T13:05:20.606Z,43.51
2023-03-15T13:08:05.673Z,43.33
2023-03-15T13:11:00.310Z,44.94
2023-03-15T13:14:01.810Z,43.49
2023-03-15T13:16:38.186Z,43.57
2023-03-15T13:19:17.683Z,44.19
2023-03-15T13:22:00.423Z,46.64
2023-03-15T13:24:38.839Z,50.92
2023-03-15T13:27:14.479Z,60.61
2023-03-15T13:29:42.469Z,60.17
2023-03-15T13:32:15.374Z,61.98
2023-03-15T13:34:45.746Z,60.33
2023-03-15T13:37:16.614Z,60.13
2023-03-15T13:39:57.472Z,60.69
2023-03-15T13:42:26.303Z,64.90
2023-03-15T13:45:14.292Z,69.92
2023-03-15T13:47:44.073Z,73.34
2023-03-15T13:50:16.149Z,74.04
2023-03-15T13:52:44.769Z,75.55
2023-03-15T13:55:17.045Z,76.70
2023-03-15T13:57:45.478Z,77.45
2023-03-15T14:00:17.043Z,76.98
2023-03-15T14:02:54.102Z,75.42
2023-03-15T14:05:27.375Z,68.09
2023-03-15T14:08:02.816Z,68.94
2023-03-15T14:10:34.614Z,68.47
2023-03-15T14:13:22.370Z,68.55
2023-03-15T14:15:50.781Z,68.08
2023-03-15T14:18:24.034Z,67.10
2023-03-15T14:20:59.868Z,65.98
2023-03-15T14:23:30.090Z,68.69
2023-03-15T14:26:13.754Z,67.70
2023-03-15T14:28:43.658Z,67.37
2023-03-15T14:31:24.122Z,64.35
2023-03-15T14:34:00.806Z,64.37
2023-03-15T14:36:35.385Z,61.93
2023-03-15T14:39:03.372Z,60.51
2023-03-15T14:41:34.125Z,60.53
2023-03-15T14:44:03.222Z,62.54
2023-03-15T14:46:32.401Z,61.12
2023-03-15T14:49:00.412Z,61.42
2023-03-15T14:51:29.874Z,60.39
2023-03-15T14:53:59.941Z,60.47
2023-03-15T14:56:28.145Z,59.99
2023-03-15T14:58:57.354Z,59.73
2023-03-15T15:01:28.057Z,58.61
2023-03-15T15:03:59.756Z,56.94
2023-03-15T15:06:29.453Z,57.51
2023-03-15T15:08:59.715Z,56.94
2023-03-15T15:11:27.795Z,57.72
2023-03-15T15:13:57.753Z,58.02
2023-03-15T15:16:25.794Z,56.68
2023-03-15T15:18:53.700Z,56.83
2023-03-15T15:21:28.239Z,58.42
2023-03-15T15:23:59.378Z,54.98
2023-03-15T15:26:29.046Z,57.94
2023-03-15T15:28:58.477Z,59.82
2023-03-15T15:31:28.282Z,57.79
2023-03-15T15:33:57.598Z,57.75
2023-03-15T15:36:27.945Z,59.09
2023-03-15T15:38:56.483Z,59.02
2023-03-15T15:41:26.073Z,58.44
2023-03-15T15:43:54.569Z,58.52
2023-03-15T15:46:24.319Z,59.08
2023-03-15T15:48:52.802Z,58.67
2023-03-15T15:51:28.843Z,59.14
2023-03-15T15:53:59.170Z,59.85
2023-03-15T15:56:32.982Z,57.47
2023-03-15T15:59:03.078Z,54.63
2023-03-15T16:01:32.943Z,53.38
2023-03-15T16:04:01.988Z,53.64
2023-03-15T16:06:29.948Z,53.43
2023-03-15T16:08:58.263Z,54.12
2023-03-15T16:11:26.908Z,52.78
2023-03-15T16:13:54.979Z,53.28
2023-03-15T16:16:23.385Z,53.46
2023-03-15T16:18:52.768Z,53.08
2023-03-15T16:21:27.629Z,53.35
2023-03-15T16:23:59.491Z,53.66
2023-03-15T16:26:27.503Z,54.21
2023-03-15T16:28:55.704Z,53.97
2023-03-15T16:31:23.864Z,53.86
2023-03-15T16:33:53.154Z,54.50
2023-03-15T16:36:23.473Z,54.33
2023-03-15T16:38:51.106Z,54.54
2023-03-15T16:41:19.138Z,54.41
2023-03-15T16:43:49.205Z,53.85
2023-03-15T16:46:17.759Z,53.63
2023-03-15T16:48:45.666Z,54.17
2023-03-15T16:51:17.199Z,55.27
2023-03-15T16:53:45.673Z,56.71
2023-03-15T16:56:16.316Z,57.43
2023-03-15T16:58:45.646Z,58.07
2023-03-15T17:01:13.707Z,59.13
2023-03-15T17:03:41.672Z,59.87
2023-03-15T17:06:20.151Z,59.74
2023-03-15T17:08:48.434Z,58.15
2023-03-15T17:11:17.252Z,58.49
2023-03-15T17:13:45.248Z,61.84
2023-03-15T17:16:13.608Z,61.89
2023-03-15T17:18:42.956Z,61.21
2023-03-15T17:21:14.339Z,62.73
2023-03-15T17:23:44.088Z,65.43
2023-03-15T17:26:14.752Z,67.12
2023-03-15T17:28:43.669Z,67.58
2023-03-15T17:31:31.039Z,68.60
2023-03-15T17:33:59.452Z,69.87
2023-03-15T17:36:30.940Z,71.48
2023-03-15T17:39:00.371Z,71.74
2023-03-15T17:41:31.445Z,73.17
2023-03-15T17:43:59.803Z,73.87
2023-03-15T17:46:30.187Z,73.72
2023-03-15T17:48:59.064Z,74.80
2023-03-15T17:51:29.019Z,74.81
2023-03-15T17:53:59.251Z,73.88
2023-03-15T17:56:28.339Z,74.06
2023-03-15T17:58:56.433Z,74.14
2023-03-15T18:01:27.425Z,75.04
2023-03-15T18:03:57.045Z,76.22
2023-03-15T18:06:25.282Z,76.48
2023-03-15T18:08:53.263Z,78.39
2023-03-15T18:11:25.458Z,78.37
2023-03-15T18:13:55.136Z,77.46
2023-03-15T18:16:23.506Z,76.99
2023-03-15T18:18:51.376Z,76.55
2023-03-15T18:21:21.898Z,77.25
2023-03-15T18:23:50.659Z,77.05
2023-03-15T18:26:19.642Z,77.24
2023-03-15T18:28:49.010Z,77.34
2023-03-15T18:31:20.437Z,76.16
2023-03-15T18:33:48.660Z,76.72
2023-03-15T18:36:16.625Z,76.92
2023-03-15T18:38:45.088Z,78.00
2023-03-15T18:41:18.166Z,77.93
2023-03-15T18:43:49.746Z,79.00
2023-03-15T18:46:21.290Z,80.09
2023-03-15T18:48:49.891Z,80.19
2023-03-15T18:51:18.471Z,79.54
2023-03-15T18:53:47.020Z,80.05
2023-03-15T18:56:20.619Z,80.27
2023-03-15T18:58:49.603Z,80.35
2023-03-15T19:01:19.966Z,80.02
2023-03-15T19:03:47.814Z,81.05
2023-03-15T19:06:15.790Z,81.30
2023-03-15T19:08:43.765Z,81.62
2023-03-15T19:11:11.962Z,81.58
2023-03-15T19:13:39.788Z,81.92
2023-03-15T19:16:08.067Z,82.69
2023-03-15T19:18:40.769Z,83.81
2023-03-15T19:21:08.592Z,83.34
2023-03-15T19:23:36.537Z,83.39
2023-03-15T19:26:05.051Z,83.83
2023-03-15T19:28:33.064Z,83.47
2023-03-15T19:31:00.975Z,83.22
2023-03-15T19:33:29.066Z,83.02
2023-03-15T19:35:58.313Z,83.11
2023-03-15T19:38:26.351Z,83.57
2023-03-15T19:40:56.703Z,83.95
2023-03-15T19:43:24.629Z,84.90
2023-03-15T19:45:52.752Z,83.87
2023-03-15T19:48:21.348Z,83.39
2023-03-15T19:50:49.486Z,83.82
2023-03-15T19:53:19.074Z,83.98
2023-03-15T19:55:46.915Z,85.08
2023-03-15T19:58:14.698Z,84.37
2023-03-15T20:00:42.625Z,84.99
2023-03-15T20:03:12.531Z,85.39
2023-03-15T20:05:40.513Z,85.20
2023-03-15T20:08:10.063Z,84.73
2023-03-15T20:10:39.258Z,84.78
2023-03-15T20:13:09.201Z,84.28
2023-03-15T20:15:37.398Z,84.08
2023-03-15T20:18:08.179Z,85.16
2023-03-15T20:20:36.031Z,85.47
2023-03-15T20:23:03.899Z,84.96
2023-03-15T20:25:31.773Z,84.90
2023-03-15T20:28:01.183Z,85.31
2023-03-15T20:30:29.021Z,85.20
2023-03-15T20:32:56.982Z,85.04
2023-03-15T20:35:24.922Z,85.20
2023-03-15T20:37:53.556Z,85.00
2023-03-15T20:40:21.968Z,85.68
2023-03-15T20:42:49.933Z,86.41
2023-03-15T20:45:19.243Z,85.40
2023-03-15T20:47:47.149Z,85.50
2023-03-15T20:50:15.061Z,86.19
2023-03-15T20:52:43.606Z,86.89
2023-03-15T20:55:12.321Z,86.82
2023-03-15T20:57:42.121Z,86.91
2023-03-15T21:00:12.594Z,86.68
2023-03-15T21:02:41.848Z,86.42
2023-03-15T21:05:10.461Z,87.11
2023-03-15T21:07:38.490Z,86.84
2023-03-15T21:10:07.373Z,87.03
2023-03-15T21:12:35.231Z,86.12
2023-03-15T21:15:03.178Z,86.41
2023-03-15T21:17:31.013Z,85.99
2023-03-15T21:20:00.739Z,87.00
2023-03-15T21:22:28.586Z,87.35
2023-03-15T21:24:56.582Z,87.15
2023-03-15T21:27:26.001Z,87.33
2023-03-15T21:29:53.920Z,88.26
2023-03-15T21:32:21.790Z,87.85
2023-03-15T21:34:49.566Z,87.85
2023-03-15T21:37:18.843Z,86.52
2023-03-15T21:39:46.737Z,86.57
2023-03-15T21:42:14.738Z,86.55
2023-03-15T21:44:42.764Z,87.06
2023-03-15T21:47:11.263Z,86.78
2023-03-15T21:49:39.066Z,86.18
2023-03-15T21:52:07.238Z,86.98
2023-03-15T21:54:36.522Z,86.86
2023-03-15T21:57:04.831Z,86.70
2023-03-15T21:59:32.775Z,86.45
2023-03-15T22:02:02.010Z,87.48
2023-03-15T22:04:30.257Z,87.44
2023-03-15T22:06:58.073Z,87.30
2023-03-15T22:09:26.190Z,86.96
2023-03-15T22:11:55.416Z,86.84
2023-03-15T22:14:23.193Z,87.67
2023-03-15T22:16:51.554Z,87.81
2023-03-15T22:19:19.521Z,87.91
2023-03-15T22:21:47.447Z,87.74
2023-03-15T22:24:15.314Z,87.70
2023-03-15T22:26:43.954Z,88.06
2023-03-15T22:29:13.190Z,87.75
2023-03-15T22:31:40.990Z,87.35
2023-03-15T22:34:08.988Z,87.76
2023-03-15T22:36:36.813Z,87.42
2023-03-15T22:39:04.907Z,86.43
2023-03-15T22:41:32.718Z,86.63
2023-03-15T22:44:00.536Z,87.38
2023-03-15T22:46:34.796Z,87.54
2023-03-15T22:49:03.485Z,87.30
2023-03-15T22:51:31.263Z,87.03
2023-03-15T22:53:59.284Z,86.95
2023-03-15T22:56:27.152Z,88.12
2023-03-15T22:58:55.523Z,88.52
2023-03-15T23:01:23.470Z,88.28
2023-03-15T23:03:52.868Z,88.56
2023-03-15T23:06:21.114Z,88.09
2023-03-15T23:08:49.314Z,87.79
2023-03-15T23:11:17.191Z,87.90
2023-03-15T23:13:48.291Z,87.88
2023-03-15T23:16:16.591Z,87.05
2023-03-15T23:18:45.250Z,88.79
2023-03-15T23:21:15.513Z,89.18
2023-03-15T23:23:43.793Z,88.29
2023-03-15T23:26:15.233Z,88.97
2023-03-15T23:28:43.769Z,88.31
2023-03-15T23:31:11.930Z,88.69
2023-03-15T23:33:39.765Z,88.44
2023-03-15T23:36:08.370Z,87.77
2023-03-15T23:38:37.659Z,87.57
2023-03-15T23:41:05.940Z,88.04
2023-03-15T23:43:34.412Z,88.37
2023-03-15T23:46:04.865Z,87.55
2023-03-15T23:48:35.192Z,87.59
2023-03-15T23:51:04.180Z,88.38
2023-03-15T23:53:32.440Z,88.21
2023-03-15T23:56:01.832Z,88.35
2023-03-15T23:58:29.996Z,87.27
